sensor_id;sensor_type;location;lat;lon;timestamp;P1;durP1;ratioP1;P2;durP2;ratioP2
43891;SDS011;29555;45.350;5.578;2023-12-29T00:01:13;19.33;;;12.80;;
43891;SDS011;29555;45.350;5.578;2023-12-29T00:03:38;22.33;;;12.95;;
43891;SDS011;29555;45.350;5.578;2023-12-29T00:06:04;19.88;;;13.32;;
43891;SDS011;29555;45.350;5.578;2023-12-29T00:08:30;18.88;;;13.68;;
43891;SDS011;29555;45.350;5.578;2023-12-29T00:10:56;23.98;;;15.55;;
43891;SDS011;29555;45.350;5.578;2023-12-29T00:13:21;26.80;;;16.30;;
43891;SDS011;29555;45.350;5.578;2023-12-29T00:15:52;27.45;;;18.13;;
43891;SDS011;29555;45.350;5.578;2023-12-29T00:18:18;22.10;;;15.05;;
43891;SDS011;29555;45.350;5.578;2023-12-29T00:20:43;23.90;;;16.02;;
43891;SDS011;29555;45.350;5.578;2023-12-29T00:23:09;31.15;;;16.95;;
43891;SDS011;29555;45.350;5.578;2023-12-29T00:25:38;22.77;;;14.10;;
43891;SDS011;29555;45.350;5.578;2023-12-29T00:28:04;24.30;;;13.13;;
43891;SDS011;29555;45.350;5.578;2023-12-29T00:30:30;21.40;;;12.20;;
43891;SDS011;29555;45.350;5.578;2023-12-29T00:32:55;19.63;;;13.05;;
43891;SDS011;29555;45.350;5.578;2023-12-29T00:35:21;16.75;;;11.57;;
43891;SDS011;29555;45.350;5.578;2023-12-29T00:37:46;15.07;;;10.93;;
43891;SDS011;29555;45.350;5.578;2023-12-29T00:40:12;18.95;;;12.13;;
43891;SDS011;29555;45.350;5.578;2023-12-29T00:42:37;22.95;;;15.05;;
43891;SDS011;29555;45.350;5.578;2023-12-29T00:45:03;24.33;;;12.95;;
43891;SDS011;29555;45.350;5.578;2023-12-29T00:47:29;18.08;;;12.07;;
43891;SDS011;29555;45.350;5.578;2023-12-29T00:49:54;43.78;;;19.25;;
43891;SDS011;29555;45.350;5.578;2023-12-29T00:52:20;59.25;;;23.30;;
43891;SDS011;29555;45.350;5.578;2023-12-29T00:54:45;58.22;;;28.02;;
43891;SDS011;29555;45.350;5.578;2023-12-29T00:57:11;34.95;;;18.00;;
43891;SDS011;29555;45.350;5.578;2023-12-29T00:59:39;48.13;;;23.50;;
43891;SDS011;29555;45.350;5.578;2023-12-29T01:02:06;61.30;;;26.92;;
43891;SDS011;29555;45.350;5.578;2023-12-29T01:04:32;33.97;;;20.02;;
43891;SDS011;29555;45.350;5.578;2023-12-29T01:06:57;28.42;;;17.23;;
43891;SDS011;29555;45.350;5.578;2023-12-29T01:09:23;32.83;;;16.48;;
43891;SDS011;29555;45.350;5.578;2023-12-29T01:11:48;24.65;;;15.55;;
43891;SDS011;29555;45.350;5.578;2023-12-29T01:14:14;28.50;;;14.10;;
43891;SDS011;29555;45.350;5.578;2023-12-29T01:16:39;20.75;;;11.95;;
43891;SDS011;29555;45.350;5.578;2023-12-29T01:19:06;21.00;;;13.20;;
43891;SDS011;29555;45.350;5.578;2023-12-29T01:21:32;19.67;;;12.32;;
43891;SDS011;29555;45.350;5.578;2023-12-29T01:23:59;16.42;;;10.30;;
43891;SDS011;29555;45.350;5.578;2023-12-29T01:26:26;16.88;;;11.18;;
43891;SDS011;29555;45.350;5.578;2023-12-29T01:28:51;18.42;;;11.43;;
43891;SDS011;29555;45.350;5.578;2023-12-29T01:31:16;22.10;;;13.52;;
43891;SDS011;29555;45.350;5.578;2023-12-29T01:33:42;29.10;;;14.48;;
43891;SDS011;29555;45.350;5.578;2023-12-29T01:36:07;17.50;;;11.77;;
43891;SDS011;29555;45.350;5.578;2023-12-29T01:38:33;20.15;;;13.70;;
43891;SDS011;29555;45.350;5.578;2023-12-29T01:40:58;13.25;;;8.25;;
43891;SDS011;29555;45.350;5.578;2023-12-29T01:43:23;17.15;;;9.02;;
43891;SDS011;29555;45.350;5.578;2023-12-29T01:45:49;13.68;;;9.07;;
43891;SDS011;29555;45.350;5.578;2023-12-29T01:48:14;12.38;;;9.13;;
43891;SDS011;29555;45.350;5.578;2023-12-29T01:50:40;16.52;;;9.70;;
43891;SDS011;29555;45.350;5.578;2023-12-29T01:53:05;12.00;;;7.22;;
43891;SDS011;29555;45.350;5.578;2023-12-29T01:55:31;15.02;;;9.10;;
43891;SDS011;29555;45.350;5.578;2023-12-29T01:57:57;19.25;;;10.73;;
43891;SDS011;29555;45.350;5.578;2023-12-29T02:00:23;22.77;;;10.45;;
43891;SDS011;29555;45.350;5.578;2023-12-29T02:02:49;18.92;;;11.30;;
43891;SDS011;29555;45.350;5.578;2023-12-29T02:05:15;15.90;;;11.00;;
43891;SDS011;29555;45.350;5.578;2023-12-29T02:07:42;19.88;;;10.27;;
43891;SDS011;29555;45.350;5.578;2023-12-29T02:10:07;14.68;;;8.95;;
43891;SDS011;29555;45.350;5.578;2023-12-29T02:12:34;15.65;;;8.35;;
43891;SDS011;29555;45.350;5.578;2023-12-29T02:15:02;11.90;;;8.20;;
43891;SDS011;29555;45.350;5.578;2023-12-29T02:17:40;11.23;;;7.50;;
43891;SDS011;29555;45.350;5.578;2023-12-29T02:20:08;16.95;;;8.75;;
43891;SDS011;29555;45.350;5.578;2023-12-29T02:22:34;10.38;;;7.00;;
43891;SDS011;29555;45.350;5.578;2023-12-29T02:25:00;11.38;;;7.28;;
43891;SDS011;29555;45.350;5.578;2023-12-29T02:27:29;17.75;;;7.25;;
43891;SDS011;29555;45.350;5.578;2023-12-29T02:30:02;11.45;;;6.68;;
43891;SDS011;29555;45.350;5.578;2023-12-29T02:32:29;11.05;;;7.65;;
43891;SDS011;29555;45.350;5.578;2023-12-29T02:34:55;11.82;;;6.88;;
43891;SDS011;29555;45.350;5.578;2023-12-29T02:37:22;9.65;;;5.97;;
43891;SDS011;29555;45.350;5.578;2023-12-29T02:39:48;12.45;;;7.97;;
43891;SDS011;29555;45.350;5.578;2023-12-29T02:42:14;15.85;;;10.73;;
43891;SDS011;29555;45.350;5.578;2023-12-29T02:44:39;21.08;;;12.75;;
43891;SDS011;29555;45.350;5.578;2023-12-29T02:47:05;22.85;;;14.23;;
43891;SDS011;29555;45.350;5.578;2023-12-29T02:49:30;28.70;;;17.63;;
43891;SDS011;29555;45.350;5.578;2023-12-29T02:51:56;29.10;;;17.65;;
43891;SDS011;29555;45.350;5.578;2023-12-29T02:54:21;26.58;;;16.98;;
43891;SDS011;29555;45.350;5.578;2023-12-29T02:56:46;23.02;;;16.05;;
43891;SDS011;29555;45.350;5.578;2023-12-29T02:59:12;28.95;;;15.45;;
43891;SDS011;29555;45.350;5.578;2023-12-29T03:01:37;30.00;;;17.60;;
43891;SDS011;29555;45.350;5.578;2023-12-29T03:04:02;24.10;;;16.73;;
43891;SDS011;29555;45.350;5.578;2023-12-29T03:06:28;37.05;;;17.90;;
43891;SDS011;29555;45.350;5.578;2023-12-29T03:08:53;30.17;;;19.33;;
43891;SDS011;29555;45.350;5.578;2023-12-29T03:11:19;24.92;;;17.70;;
43891;SDS011;29555;45.350;5.578;2023-12-29T03:13:44;32.38;;;18.52;;
43891;SDS011;29555;45.350;5.578;2023-12-29T03:16:10;26.05;;;17.92;;
43891;SDS011;29555;45.350;5.578;2023-12-29T03:18:35;34.22;;;19.67;;
43891;SDS011;29555;45.350;5.578;2023-12-29T03:21:04;30.77;;;18.88;;
43891;SDS011;29555;45.350;5.578;2023-12-29T03:23:30;34.15;;;18.48;;
43891;SDS011;29555;45.350;5.578;2023-12-29T03:25:55;40.53;;;18.77;;
43891;SDS011;29555;45.350;5.578;2023-12-29T03:28:21;30.52;;;19.00;;
43891;SDS011;29555;45.350;5.578;2023-12-29T03:30:46;31.35;;;18.13;;
43891;SDS011;29555;45.350;5.578;2023-12-29T03:33:11;29.30;;;18.88;;
43891;SDS011;29555;45.350;5.578;2023-12-29T03:35:37;28.50;;;17.55;;
43891;SDS011;29555;45.350;5.578;2023-12-29T03:38:02;24.65;;;16.85;;
43891;SDS011;29555;45.350;5.578;2023-12-29T03:40:28;28.58;;;18.05;;
43891;SDS011;29555;45.350;5.578;2023-12-29T03:42:53;30.10;;;16.83;;
43891;SDS011;29555;45.350;5.578;2023-12-29T03:45:18;22.33;;;15.27;;
43891;SDS011;29555;45.350;5.578;2023-12-29T03:47:44;33.38;;;15.98;;
43891;SDS011;29555;45.350;5.578;2023-12-29T03:50:09;27.92;;;16.15;;
43891;SDS011;29555;45.350;5.578;2023-12-29T03:52:34;25.10;;;15.52;;
43891;SDS011;29555;45.350;5.578;2023-12-29T03:55:00;34.22;;;19.45;;
43891;SDS011;29555;45.350;5.578;2023-12-29T03:57:25;28.48;;;18.80;;
43891;SDS011;29555;45.350;5.578;2023-12-29T03:59:51;26.95;;;16.35;;
43891;SDS011;29555;45.350;5.578;2023-12-29T04:02:16;24.95;;;15.95;;
43891;SDS011;29555;45.350;5.578;2023-12-29T04:04:42;24.35;;;15.68;;
43891;SDS011;29555;45.350;5.578;2023-12-29T04:07:08;23.60;;;16.33;;
43891;SDS011;29555;45.350;5.578;2023-12-29T04:09:33;28.23;;;17.55;;
43891;SDS011;29555;45.350;5.578;2023-12-29T04:11:58;23.85;;;15.82;;
43891;SDS011;29555;45.350;5.578;2023-12-29T04:14:24;23.67;;;16.50;;
43891;SDS011;29555;45.350;5.578;2023-12-29T04:16:49;32.78;;;18.48;;
43891;SDS011;29555;45.350;5.578;2023-12-29T04:19:15;35.22;;;17.95;;
43891;SDS011;29555;45.350;5.578;2023-12-29T04:21:40;23.83;;;14.75;;
43891;SDS011;29555;45.350;5.578;2023-12-29T04:24:05;24.92;;;15.30;;
43891;SDS011;29555;45.350;5.578;2023-12-29T04:26:40;23.10;;;14.35;;
43891;SDS011;29555;45.350;5.578;2023-12-29T04:29:05;23.65;;;11.93;;
43891;SDS011;29555;45.350;5.578;2023-12-29T04:31:31;22.80;;;13.35;;
43891;SDS011;29555;45.350;5.578;2023-12-29T04:33:56;20.48;;;13.07;;
43891;SDS011;29555;45.350;5.578;2023-12-29T04:36:21;20.08;;;14.10;;
43891;SDS011;29555;45.350;5.578;2023-12-29T04:38:47;23.52;;;15.55;;
43891;SDS011;29555;45.350;5.578;2023-12-29T04:41:12;34.22;;;16.05;;
43891;SDS011;29555;45.350;5.578;2023-12-29T04:43:38;26.67;;;16.90;;
43891;SDS011;29555;45.350;5.578;2023-12-29T04:46:03;19.70;;;10.30;;
43891;SDS011;29555;45.350;5.578;2023-12-29T04:48:29;12.00;;;9.18;;
43891;SDS011;29555;45.350;5.578;2023-12-29T04:50:54;15.48;;;12.25;;
43891;SDS011;29555;45.350;5.578;2023-12-29T04:53:20;24.02;;;15.15;;
43891;SDS011;29555;45.350;5.578;2023-12-29T04:55:45;22.67;;;15.02;;
43891;SDS011;29555;45.350;5.578;2023-12-29T04:58:10;23.00;;;15.93;;
43891;SDS011;29555;45.350;5.578;2023-12-29T05:00:36;45.40;;;22.75;;
43891;SDS011;29555;45.350;5.578;2023-12-29T05:03:01;213.77;;;89.78;;
43891;SDS011;29555;45.350;5.578;2023-12-29T05:05:26;247.45;;;114.20;;
43891;SDS011;29555;45.350;5.578;2023-12-29T05:07:52;266.13;;;123.35;;
43891;SDS011;29555;45.350;5.578;2023-12-29T05:10:17;120.60;;;55.72;;
43891;SDS011;29555;45.350;5.578;2023-12-29T05:12:43;87.22;;;39.05;;
43891;SDS011;29555;45.350;5.578;2023-12-29T05:15:08;31.80;;;19.88;;
43891;SDS011;29555;45.350;5.578;2023-12-29T05:17:34;17.10;;;11.57;;
43891;SDS011;29555;45.350;5.578;2023-12-29T05:19:59;81.45;;;36.17;;
43891;SDS011;29555;45.350;5.578;2023-12-29T05:22:24;65.43;;;32.53;;
43891;SDS011;29555;45.350;5.578;2023-12-29T05:24:50;26.42;;;15.40;;
43891;SDS011;29555;45.350;5.578;2023-12-29T05:27:15;14.50;;;10.10;;
43891;SDS011;29555;45.350;5.578;2023-12-29T05:29:41;19.05;;;10.93;;
43891;SDS011;29555;45.350;5.578;2023-12-29T05:32:07;13.57;;;10.30;;
43891;SDS011;29555;45.350;5.578;2023-12-29T05:34:33;19.42;;;11.38;;
43891;SDS011;29555;45.350;5.578;2023-12-29T05:36:58;17.63;;;11.15;;
43891;SDS011;29555;45.350;5.578;2023-12-29T05:39:24;11.18;;;8.50;;
43891;SDS011;29555;45.350;5.578;2023-12-29T05:41:49;15.93;;;11.00;;
43891;SDS011;29555;45.350;5.578;2023-12-29T05:44:14;15.60;;;8.65;;
43891;SDS011;29555;45.350;5.578;2023-12-29T05:46:40;14.25;;;7.68;;
43891;SDS011;29555;45.350;5.578;2023-12-29T05:49:06;13.50;;;8.85;;
43891;SDS011;29555;45.350;5.578;2023-12-29T05:51:31;14.52;;;8.13;;
43891;SDS011;29555;45.350;5.578;2023-12-29T05:53:56;19.75;;;9.82;;
43891;SDS011;29555;45.350;5.578;2023-12-29T05:56:22;9.48;;;7.78;;
43891;SDS011;29555;45.350;5.578;2023-12-29T05:58:47;10.15;;;6.55;;
43891;SDS011;29555;45.350;5.578;2023-12-29T06:01:13;9.05;;;6.43;;
43891;SDS011;29555;45.350;5.578;2023-12-29T06:03:38;11.32;;;5.07;;
43891;SDS011;29555;45.350;5.578;2023-12-29T06:06:03;10.85;;;6.25;;
43891;SDS011;29555;45.350;5.578;2023-12-29T06:08:29;12.55;;;7.93;;
43891;SDS011;29555;45.350;5.578;2023-12-29T06:10:54;15.55;;;8.80;;
43891;SDS011;29555;45.350;5.578;2023-12-29T06:13:20;90.60;;;50.83;;
43891;SDS011;29555;45.350;5.578;2023-12-29T06:15:45;46.60;;;27.77;;
43891;SDS011;29555;45.350;5.578;2023-12-29T06:18:10;25.05;;;17.77;;
43891;SDS011;29555;45.350;5.578;2023-12-29T06:20:36;19.70;;;13.57;;
43891;SDS011;29555;45.350;5.578;2023-12-29T06:23:01;11.98;;;10.65;;
43891;SDS011;29555;45.350;5.578;2023-12-29T06:25:27;15.32;;;9.32;;
43891;SDS011;29555;45.350;5.578;2023-12-29T06:27:53;10.85;;;8.60;;
43891;SDS011;29555;45.350;5.578;2023-12-29T06:30:19;15.82;;;10.43;;
43891;SDS011;29555;45.350;5.578;2023-12-29T06:32:45;17.23;;;9.80;;
43891;SDS011;29555;45.350;5.578;2023-12-29T06:35:10;11.40;;;7.32;;
43891;SDS011;29555;45.350;5.578;2023-12-29T06:37:36;18.02;;;14.15;;
43891;SDS011;29555;45.350;5.578;2023-12-29T06:40:05;57.15;;;33.65;;
43891;SDS011;29555;45.350;5.578;2023-12-29T06:42:32;74.80;;;40.65;;
43891;SDS011;29555;45.350;5.578;2023-12-29T06:44:57;56.78;;;26.88;;
43891;SDS011;29555;45.350;5.578;2023-12-29T06:47:22;35.35;;;19.83;;
43891;SDS011;29555;45.350;5.578;2023-12-29T06:49:48;49.03;;;29.33;;
43891;SDS011;29555;45.350;5.578;2023-12-29T06:52:13;32.75;;;23.15;;
43891;SDS011;29555;45.350;5.578;2023-12-29T06:54:39;52.90;;;32.65;;
43891;SDS011;29555;45.350;5.578;2023-12-29T06:57:04;31.75;;;21.60;;
43891;SDS011;29555;45.350;5.578;2023-12-29T06:59:30;37.88;;;19.30;;
43891;SDS011;29555;45.350;5.578;2023-12-29T07:01:56;32.38;;;21.58;;
43891;SDS011;29555;45.350;5.578;2023-12-29T07:04:21;33.30;;;21.38;;
43891;SDS011;29555;45.350;5.578;2023-12-29T07:06:46;28.00;;;19.92;;
43891;SDS011;29555;45.350;5.578;2023-12-29T07:09:12;31.55;;;23.60;;
43891;SDS011;29555;45.350;5.578;2023-12-29T07:11:37;34.08;;;22.58;;
43891;SDS011;29555;45.350;5.578;2023-12-29T07:14:03;36.75;;;22.30;;
43891;SDS011;29555;45.350;5.578;2023-12-29T07:16:28;40.97;;;25.02;;
43891;SDS011;29555;45.350;5.578;2023-12-29T07:18:54;26.30;;;19.63;;
43891;SDS011;29555;45.350;5.578;2023-12-29T07:21:19;29.65;;;20.73;;
43891;SDS011;29555;45.350;5.578;2023-12-29T07:23:45;39.17;;;25.58;;
43891;SDS011;29555;45.350;5.578;2023-12-29T07:26:10;43.00;;;22.40;;
43891;SDS011;29555;45.350;5.578;2023-12-29T07:28:36;32.13;;;23.85;;
43891;SDS011;29555;45.350;5.578;2023-12-29T07:31:01;34.38;;;21.63;;
43891;SDS011;29555;45.350;5.578;2023-12-29T07:33:27;30.77;;;18.92;;
43891;SDS011;29555;45.350;5.578;2023-12-29T07:35:52;35.05;;;21.30;;
43891;SDS011;29555;45.350;5.578;2023-12-29T07:38:18;33.78;;;19.33;;
43891;SDS011;29555;45.350;5.578;2023-12-29T07:40:43;38.90;;;20.13;;
43891;SDS011;29555;45.350;5.578;2023-12-29T07:43:09;28.88;;;19.58;;
43891;SDS011;29555;45.350;5.578;2023-12-29T07:45:34;30.30;;;20.27;;
43891;SDS011;29555;45.350;5.578;2023-12-29T07:48:02;35.20;;;25.13;;
43891;SDS011;29555;45.350;5.578;2023-12-29T07:50:28;32.58;;;22.33;;
43891;SDS011;29555;45.350;5.578;2023-12-29T07:52:53;31.52;;;21.33;;
43891;SDS011;29555;45.350;5.578;2023-12-29T07:55:18;29.40;;;18.25;;
43891;SDS011;29555;45.350;5.578;2023-12-29T07:57:44;26.95;;;16.00;;
43891;SDS011;29555;45.350;5.578;2023-12-29T08:00:11;25.75;;;16.98;;
43891;SDS011;29555;45.350;5.578;2023-12-29T08:02:38;24.20;;;16.17;;
43891;SDS011;29555;45.350;5.578;2023-12-29T08:05:03;23.08;;;14.88;;
43891;SDS011;29555;45.350;5.578;2023-12-29T08:07:29;26.65;;;17.02;;
43891;SDS011;29555;45.350;5.578;2023-12-29T08:09:54;35.72;;;17.50;;
43891;SDS011;29555;45.350;5.578;2023-12-29T08:12:19;22.30;;;15.32;;
43891;SDS011;29555;45.350;5.578;2023-12-29T08:14:45;25.20;;;16.20;;
43891;SDS011;29555;45.350;5.578;2023-12-29T08:17:10;29.17;;;19.20;;
43891;SDS011;29555;45.350;5.578;2023-12-29T08:19:36;26.30;;;18.05;;
43891;SDS011;29555;45.350;5.578;2023-12-29T08:22:01;23.95;;;16.45;;
43891;SDS011;29555;45.350;5.578;2023-12-29T08:24:27;18.95;;;15.32;;
43891;SDS011;29555;45.350;5.578;2023-12-29T08:26:52;24.90;;;15.50;;
43891;SDS011;29555;45.350;5.578;2023-12-29T08:29:18;28.20;;;15.63;;
43891;SDS011;29555;45.350;5.578;2023-12-29T08:31:44;23.10;;;14.90;;
43891;SDS011;29555;45.350;5.578;2023-12-29T08:34:10;19.15;;;14.77;;
43891;SDS011;29555;45.350;5.578;2023-12-29T08:36:36;27.10;;;17.98;;
43891;SDS011;29555;45.350;5.578;2023-12-29T08:39:02;34.70;;;19.58;;
43891;SDS011;29555;45.350;5.578;2023-12-29T08:41:27;27.95;;;18.98;;
43891;SDS011;29555;45.350;5.578;2023-12-29T08:43:53;31.55;;;20.50;;
43891;SDS011;29555;45.350;5.578;2023-12-29T08:46:18;32.45;;;22.58;;
43891;SDS011;29555;45.350;5.578;2023-12-29T08:48:44;29.92;;;20.35;;
43891;SDS011;29555;45.350;5.578;2023-12-29T08:51:09;38.35;;;21.95;;
43891;SDS011;29555;45.350;5.578;2023-12-29T08:53:34;32.17;;;22.73;;
43891;SDS011;29555;45.350;5.578;2023-12-29T08:56:03;38.20;;;24.50;;
43891;SDS011;29555;45.350;5.578;2023-12-29T08:58:29;32.28;;;20.63;;
43891;SDS011;29555;45.350;5.578;2023-12-29T09:00:55;29.50;;;21.52;;
43891;SDS011;29555;45.350;5.578;2023-12-29T09:03:20;30.63;;;23.10;;
43891;SDS011;29555;45.350;5.578;2023-12-29T09:05:46;33.40;;;22.00;;
43891;SDS011;29555;45.350;5.578;2023-12-29T09:08:12;32.53;;;21.90;;
43891;SDS011;29555;45.350;5.578;2023-12-29T09:10:37;38.13;;;21.23;;
43891;SDS011;29555;45.350;5.578;2023-12-29T09:13:03;33.60;;;22.40;;
43891;SDS011;29555;45.350;5.578;2023-12-29T09:15:29;29.80;;;22.10;;
43891;SDS011;29555;45.350;5.578;2023-12-29T09:17:54;32.97;;;22.65;;
43891;SDS011;29555;45.350;5.578;2023-12-29T09:20:20;35.08;;;22.60;;
43891;SDS011;29555;45.350;5.578;2023-12-29T09:22:45;31.77;;;21.13;;
43891;SDS011;29555;45.350;5.578;2023-12-29T09:25:10;39.92;;;21.33;;
43891;SDS011;29555;45.350;5.578;2023-12-29T09:27:36;33.17;;;21.38;;
43891;SDS011;29555;45.350;5.578;2023-12-29T09:30:01;26.98;;;18.55;;
43891;SDS011;29555;45.350;5.578;2023-12-29T09:32:27;33.75;;;22.33;;
43891;SDS011;29555;45.350;5.578;2023-12-29T09:34:52;33.85;;;19.77;;
43891;SDS011;29555;45.350;5.578;2023-12-29T09:37:18;31.05;;;20.98;;
43891;SDS011;29555;45.350;5.578;2023-12-29T09:39:43;31.00;;;20.95;;
43891;SDS011;29555;45.350;5.578;2023-12-29T09:42:09;32.40;;;19.90;;
43891;SDS011;29555;45.350;5.578;2023-12-29T09:44:50;31.95;;;18.92;;
43891;SDS011;29555;45.350;5.578;2023-12-29T09:47:23;28.92;;;18.98;;
43891;SDS011;29555;45.350;5.578;2023-12-29T09:49:49;31.88;;;18.90;;
43891;SDS011;29555;45.350;5.578;2023-12-29T09:52:18;32.35;;;17.83;;
43891;SDS011;29555;45.350;5.578;2023-12-29T09:54:46;23.73;;;16.92;;
43891;SDS011;29555;45.350;5.578;2023-12-29T09:57:12;26.77;;;18.00;;
43891;SDS011;29555;45.350;5.578;2023-12-29T09:59:38;24.90;;;17.38;;
43891;SDS011;29555;45.350;5.578;2023-12-29T10:02:06;22.75;;;15.50;;
43891;SDS011;29555;45.350;5.578;2023-12-29T10:04:45;24.77;;;14.98;;
43891;SDS011;29555;45.350;5.578;2023-12-29T10:07:13;17.80;;;13.07;;
43891;SDS011;29555;45.350;5.578;2023-12-29T10:09:44;25.10;;;14.85;;
43891;SDS011;29555;45.350;5.578;2023-12-29T10:12:10;25.33;;;14.45;;
43891;SDS011;29555;45.350;5.578;2023-12-29T10:14:48;21.95;;;14.63;;
43891;SDS011;29555;45.350;5.578;2023-12-29T10:20:11;75.18;;;38.10;;
43891;SDS011;29555;45.350;5.578;2023-12-29T10:25:14;51.80;;;26.50;;
43891;SDS011;29555;45.350;5.578;2023-12-29T10:27:40;29.00;;;15.43;;
43891;SDS011;29555;45.350;5.578;2023-12-29T10:30:06;34.50;;;19.77;;
43891;SDS011;29555;45.350;5.578;2023-12-29T10:32:36;20.77;;;13.57;;
43891;SDS011;29555;45.350;5.578;2023-12-29T10:35:10;24.40;;;13.70;;
43891;SDS011;29555;45.350;5.578;2023-12-29T10:37:39;47.80;;;25.55;;
43891;SDS011;29555;45.350;5.578;2023-12-29T10:40:05;57.97;;;30.40;;
43891;SDS011;29555;45.350;5.578;2023-12-29T10:42:31;30.88;;;13.57;;
43891;SDS011;29555;45.350;5.578;2023-12-29T10:45:06;21.70;;;15.23;;
43891;SDS011;29555;45.350;5.578;2023-12-29T10:47:33;20.98;;;14.00;;
43891;SDS011;29555;45.350;5.578;2023-12-29T10:50:03;17.77;;;11.73;;
43891;SDS011;29555;45.350;5.578;2023-12-29T10:52:29;13.00;;;10.50;;
43891;SDS011;29555;45.350;5.578;2023-12-29T10:55:10;12.93;;;9.65;;
43891;SDS011;29555;45.350;5.578;2023-12-29T10:57:36;17.05;;;10.18;;
43891;SDS011;29555;45.350;5.578;2023-12-29T11:00:02;15.90;;;9.15;;
43891;SDS011;29555;45.350;5.578;2023-12-29T11:02:28;15.57;;;10.27;;
43891;SDS011;29555;45.350;5.578;2023-12-29T11:05:07;17.38;;;11.18;;
43891;SDS011;29555;45.350;5.578;2023-12-29T11:07:37;19.20;;;12.85;;
43891;SDS011;29555;45.350;5.578;2023-12-29T11:10:04;18.13;;;12.15;;
43891;SDS011;29555;45.350;5.578;2023-12-29T11:12:37;13.25;;;10.10;;
43891;SDS011;29555;45.350;5.578;2023-12-29T11:15:06;18.13;;;10.23;;
43891;SDS011;29555;45.350;5.578;2023-12-29T11:17:33;31.20;;;18.48;;
43891;SDS011;29555;45.350;5.578;2023-12-29T11:20:00;12.65;;;8.80;;
43891;SDS011;29555;45.350;5.578;2023-12-29T11:22:29;20.77;;;12.20;;
43891;SDS011;29555;45.350;5.578;2023-12-29T11:24:58;12.13;;;8.65;;
43891;SDS011;29555;45.350;5.578;2023-12-29T11:27:28;9.38;;;6.72;;
43891;SDS011;29555;45.350;5.578;2023-12-29T11:29:58;14.88;;;9.38;;
43891;SDS011;29555;45.350;5.578;2023-12-29T11:32:47;12.88;;;9.98;;
43891;SDS011;29555;45.350;5.578;2023-12-29T11:35:38;8.93;;;6.75;;
43891;SDS011;29555;45.350;5.578;2023-12-29T11:38:11;10.95;;;6.95;;
43891;SDS011;29555;45.350;5.578;2023-12-29T11:44:11;11.40;;;7.13;;
43891;SDS011;29555;45.350;5.578;2023-12-29T11:46:37;7.55;;;6.57;;
43891;SDS011;29555;45.350;5.578;2023-12-29T11:49:04;12.00;;;8.30;;
43891;SDS011;29555;45.350;5.578;2023-12-29T11:51:31;11.27;;;7.65;;
43891;SDS011;29555;45.350;5.578;2023-12-29T11:53:56;11.02;;;6.50;;
43891;SDS011;29555;45.350;5.578;2023-12-29T11:56:22;11.52;;;5.95;;
43891;SDS011;29555;45.350;5.578;2023-12-29T11:58:48;6.85;;;5.60;;
43891;SDS011;29555;45.350;5.578;2023-12-29T12:01:13;10.27;;;6.30;;
43891;SDS011;29555;45.350;5.578;2023-12-29T12:03:39;7.25;;;6.40;;
43891;SDS011;29555;45.350;5.578;2023-12-29T12:06:04;11.68;;;6.57;;
43891;SDS011;29555;45.350;5.578;2023-12-29T12:08:34;9.48;;;6.47;;
43891;SDS011;29555;45.350;5.578;2023-12-29T12:13:54;13.40;;;7.57;;
43891;SDS011;29555;45.350;5.578;2023-12-29T12:19:10;11.25;;;7.18;;
43891;SDS011;29555;45.350;5.578;2023-12-29T12:21:36;14.93;;;7.60;;
43891;SDS011;29555;45.350;5.578;2023-12-29T12:24:06;20.92;;;8.88;;
43891;SDS011;29555;45.350;5.578;2023-12-29T12:26:31;11.70;;;9.02;;
43891;SDS011;29555;45.350;5.578;2023-12-29T12:28:58;15.07;;;8.88;;
43891;SDS011;29555;45.350;5.578;2023-12-29T12:31:23;15.40;;;10.45;;
43891;SDS011;29555;45.350;5.578;2023-12-29T12:33:58;24.40;;;7.85;;
43891;SDS011;29555;45.350;5.578;2023-12-29T12:36:27;11.38;;;7.40;;
43891;SDS011;29555;45.350;5.578;2023-12-29T12:38:53;11.35;;;8.63;;
43891;SDS011;29555;45.350;5.578;2023-12-29T12:41:20;15.20;;;8.15;;
43891;SDS011;29555;45.350;5.578;2023-12-29T12:43:54;9.57;;;7.57;;
43891;SDS011;29555;45.350;5.578;2023-12-29T12:46:22;8.73;;;7.13;;
43891;SDS011;29555;45.350;5.578;2023-12-29T12:48:50;7.93;;;6.25;;
43891;SDS011;29555;45.350;5.578;2023-12-29T12:51:17;11.95;;;7.45;;
43891;SDS011;29555;45.350;5.578;2023-12-29T12:53:45;14.52;;;7.43;;
43891;SDS011;29555;45.350;5.578;2023-12-29T12:56:12;10.00;;;7.18;;
43891;SDS011;29555;45.350;5.578;2023-12-29T12:58:38;11.55;;;7.72;;
43891;SDS011;29555;45.350;5.578;2023-12-29T13:01:04;13.98;;;7.07;;
43891;SDS011;29555;45.350;5.578;2023-12-29T13:03:30;10.48;;;8.27;;
43891;SDS011;29555;45.350;5.578;2023-12-29T13:05:57;16.40;;;11.10;;
43891;SDS011;29555;45.350;5.578;2023-12-29T13:08:23;13.38;;;10.18;;
43891;SDS011;29555;45.350;5.578;2023-12-29T13:10:50;12.32;;;8.95;;
43891;SDS011;29555;45.350;5.578;2023-12-29T13:13:16;14.98;;;10.77;;
43891;SDS011;29555;45.350;5.578;2023-12-29T13:15:50;15.02;;;9.60;;
43891;SDS011;29555;45.350;5.578;2023-12-29T13:18:17;16.15;;;11.20;;
43891;SDS011;29555;45.350;5.578;2023-12-29T13:20:48;19.10;;;12.43;;
43891;SDS011;29555;45.350;5.578;2023-12-29T13:23:15;17.20;;;11.20;;
43891;SDS011;29555;45.350;5.578;2023-12-29T13:25:43;12.45;;;9.88;;
43891;SDS011;29555;45.350;5.578;2023-12-29T13:28:08;15.32;;;10.15;;
43891;SDS011;29555;45.350;5.578;2023-12-29T13:30:34;12.23;;;9.57;;
43891;SDS011;29555;45.350;5.578;2023-12-29T13:33:14;20.08;;;11.52;;
43891;SDS011;29555;45.350;5.578;2023-12-29T13:35:50;17.45;;;10.48;;
43891;SDS011;29555;45.350;5.578;2023-12-29T13:38:23;11.07;;;9.45;;
43891;SDS011;29555;45.350;5.578;2023-12-29T13:43:17;13.88;;;10.32;;
43891;SDS011;29555;45.350;5.578;2023-12-29T13:45:44;11.88;;;9.73;;
43891;SDS011;29555;45.350;5.578;2023-12-29T13:48:09;18.75;;;10.90;;
43891;SDS011;29555;45.350;5.578;2023-12-29T13:50:36;16.52;;;10.45;;
43891;SDS011;29555;45.350;5.578;2023-12-29T13:53:02;14.55;;;10.13;;
43891;SDS011;29555;45.350;5.578;2023-12-29T13:55:27;9.77;;;8.00;;
43891;SDS011;29555;45.350;5.578;2023-12-29T13:57:53;13.57;;;8.52;;
43891;SDS011;29555;45.350;5.578;2023-12-29T14:00:19;13.15;;;8.30;;
43891;SDS011;29555;45.350;5.578;2023-12-29T14:10:51;12.82;;;8.70;;
43891;SDS011;29555;45.350;5.578;2023-12-29T14:13:18;13.75;;;9.57;;
43891;SDS011;29555;45.350;5.578;2023-12-29T14:15:44;13.13;;;8.63;;
43891;SDS011;29555;45.350;5.578;2023-12-29T14:20:56;11.60;;;8.25;;
43891;SDS011;29555;45.350;5.578;2023-12-29T14:23:22;8.88;;;7.97;;
43891;SDS011;29555;45.350;5.578;2023-12-29T14:25:47;11.63;;;8.25;;
43891;SDS011;29555;45.350;5.578;2023-12-29T14:28:16;15.45;;;7.88;;
43891;SDS011;29555;45.350;5.578;2023-12-29T14:30:43;10.00;;;7.32;;
43891;SDS011;29555;45.350;5.578;2023-12-29T14:33:09;12.30;;;8.40;;
43891;SDS011;29555;45.350;5.578;2023-12-29T14:35:34;7.50;;;6.28;;
43891;SDS011;29555;45.350;5.578;2023-12-29T14:38:00;11.75;;;8.10;;
43891;SDS011;29555;45.350;5.578;2023-12-29T14:40:26;10.75;;;7.53;;
43891;SDS011;29555;45.350;5.578;2023-12-29T14:42:51;13.52;;;8.50;;
43891;SDS011;29555;45.350;5.578;2023-12-29T14:45:17;11.50;;;7.45;;
43891;SDS011;29555;45.350;5.578;2023-12-29T14:47:42;8.07;;;6.63;;
43891;SDS011;29555;45.350;5.578;2023-12-29T14:50:07;11.15;;;6.05;;